sensor_id;sensor_type;location;lat;lon;timestamp;P1;durP1;ratioP1;P2;durP2;ratioP2
8803;SDS011;4438;50.890;4.726;2023-07-24T00:00:24;7.20;;;6.03;;
8803;SDS011;4438;50.890;4.726;2023-07-24T00:02:50;8.73;;;6.37;;
8803;SDS011;4438;50.890;4.726;2023-07-24T00:05:18;7.27;;;6.57;;
8803;SDS011;4438;50.890;4.726;2023-07-24T00:07:44;6.73;;;5.70;;
8803;SDS011;4438;50.890;4.726;2023-07-24T00:10:10;7.10;;;6.33;;
8803;SDS011;4438;50.890;4.726;2023-07-24T00:12:36;7.30;;;6.50;;
8803;SDS011;4438;50.890;4.726;2023-07-24T00:15:02;10.00;;;6.33;;
8803;SDS011;4438;50.890;4.726;2023-07-24T00:17:29;8.40;;;6.93;;
8803;SDS011;4438;50.890;4.726;2023-07-24T00:19:55;8.83;;;6.73;;
8803;SDS011;4438;50.890;4.726;2023-07-24T00:22:21;6.90;;;6.20;;
8803;SDS011;4438;50.890;4.726;2023-07-24T00:24:47;8.53;;;6.90;;
8803;SDS011;4438;50.890;4.726;2023-07-24T00:27:13;7.23;;;6.53;;
8803;SDS011;4438;50.890;4.726;2023-07-24T00:29:39;8.73;;;6.63;;
8803;SDS011;4438;50.890;4.726;2023-07-24T00:32:05;8.07;;;6.30;;
8803;SDS011;4438;50.890;4.726;2023-07-24T00:34:31;8.63;;;6.27;;
8803;SDS011;4438;50.890;4.726;2023-07-24T00:36:57;7.93;;;6.40;;
8803;SDS011;4438;50.890;4.726;2023-07-24T00:39:23;8.87;;;6.50;;
8803;SDS011;4438;50.890;4.726;2023-07-24T00:41:53;9.23;;;6.13;;
8803;SDS011;4438;50.890;4.726;2023-07-24T00:44:19;7.27;;;6.57;;
8803;SDS011;4438;50.890;4.726;2023-07-24T00:46:45;7.23;;;6.13;;
8803;SDS011;4438;50.890;4.726;2023-07-24T00:49:11;7.33;;;6.00;;
8803;SDS011;4438;50.890;4.726;2023-07-24T00:51:38;9.23;;;6.97;;
8803;SDS011;4438;50.890;4.726;2023-07-24T00:54:04;9.80;;;6.57;;
8803;SDS011;4438;50.890;4.726;2023-07-24T00:56:31;9.30;;;6.43;;
8803;SDS011;4438;50.890;4.726;2023-07-24T00:58:58;6.97;;;5.87;;
8803;SDS011;4438;50.890;4.726;2023-07-24T01:01:24;7.03;;;5.93;;
8803;SDS011;4438;50.890;4.726;2023-07-24T01:03:51;6.73;;;6.00;;
8803;SDS011;4438;50.890;4.726;2023-07-24T01:06:18;7.70;;;6.37;;
8803;SDS011;4438;50.890;4.726;2023-07-24T01:08:44;7.20;;;6.00;;
8803;SDS011;4438;50.890;4.726;2023-07-24T01:11:12;7.33;;;6.33;;
8803;SDS011;4438;50.890;4.726;2023-07-24T01:13:42;6.07;;;5.47;;
8803;SDS011;4438;50.890;4.726;2023-07-24T01:16:13;7.30;;;6.17;;
8803;SDS011;4438;50.890;4.726;2023-07-24T01:18:40;6.97;;;6.10;;
8803;SDS011;4438;50.890;4.726;2023-07-24T01:21:08;7.67;;;6.03;;
8803;SDS011;4438;50.890;4.726;2023-07-24T01:23:45;7.40;;;5.97;;
8803;SDS011;4438;50.890;4.726;2023-07-24T01:26:17;8.17;;;6.40;;
8803;SDS011;4438;50.890;4.726;2023-07-24T01:28:43;8.57;;;6.20;;
8803;SDS011;4438;50.890;4.726;2023-07-24T01:31:10;6.87;;;5.77;;
8803;SDS011;4438;50.890;4.726;2023-07-24T01:33:37;7.57;;;6.03;;
8803;SDS011;4438;50.890;4.726;2023-07-24T01:36:04;7.50;;;5.87;;
8803;SDS011;4438;50.890;4.726;2023-07-24T01:38:31;8.47;;;6.10;;
8803;SDS011;4438;50.890;4.726;2023-07-24T01:41:00;8.93;;;6.63;;
8803;SDS011;4438;50.890;4.726;2023-07-24T01:43:26;7.60;;;6.00;;
8803;SDS011;4438;50.890;4.726;2023-07-24T01:45:52;7.07;;;6.30;;
8803;SDS011;4438;50.890;4.726;2023-07-24T01:48:18;11.23;;;6.73;;
8803;SDS011;4438;50.890;4.726;2023-07-24T01:50:44;8.70;;;6.70;;
8803;SDS011;4438;50.890;4.726;2023-07-24T01:53:10;8.20;;;6.50;;
8803;SDS011;4438;50.890;4.726;2023-07-24T01:55:37;7.00;;;6.30;;
8803;SDS011;4438;50.890;4.726;2023-07-24T01:58:03;10.30;;;6.83;;
8803;SDS011;4438;50.890;4.726;2023-07-24T02:00:30;7.13;;;6.40;;
8803;SDS011;4438;50.890;4.726;2023-07-24T02:02:56;8.17;;;6.50;;
8803;SDS011;4438;50.890;4.726;2023-07-24T02:05:22;9.50;;;7.07;;
8803;SDS011;4438;50.890;4.726;2023-07-24T02:07:48;8.10;;;6.73;;
8803;SDS011;4438;50.890;4.726;2023-07-24T02:10:14;8.40;;;6.90;;
8803;SDS011;4438;50.890;4.726;2023-07-24T02:12:40;9.93;;;6.93;;
8803;SDS011;4438;50.890;4.726;2023-07-24T02:15:06;9.37;;;6.97;;
8803;SDS011;4438;50.890;4.726;2023-07-24T02:17:33;7.23;;;6.40;;
8803;SDS011;4438;50.890;4.726;2023-07-24T02:19:59;7.60;;;6.67;;
8803;SDS011;4438;50.890;4.726;2023-07-24T02:22:25;7.80;;;6.63;;
8803;SDS011;4438;50.890;4.726;2023-07-24T02:24:51;9.00;;;6.70;;
8803;SDS011;4438;50.890;4.726;2023-07-24T02:27:30;7.60;;;6.70;;
8803;SDS011;4438;50.890;4.726;2023-07-24T02:29:59;8.00;;;6.93;;
8803;SDS011;4438;50.890;4.726;2023-07-24T02:32:25;6.90;;;6.20;;
8803;SDS011;4438;50.890;4.726;2023-07-24T02:34:52;8.10;;;6.93;;
8803;SDS011;4438;50.890;4.726;2023-07-24T02:37:18;7.20;;;6.13;;
8803;SDS011;4438;50.890;4.726;2023-07-24T02:39:45;8.93;;;6.73;;
8803;SDS011;4438;50.890;4.726;2023-07-24T02:42:11;7.63;;;6.83;;
8803;SDS011;4438;50.890;4.726;2023-07-24T02:44:37;7.40;;;6.67;;
8803;SDS011;4438;50.890;4.726;2023-07-24T02:47:04;7.77;;;6.97;;
8803;SDS011;4438;50.890;4.726;2023-07-24T02:49:30;9.77;;;7.17;;
8803;SDS011;4438;50.890;4.726;2023-07-24T02:51:56;8.53;;;7.37;;
8803;SDS011;4438;50.890;4.726;2023-07-24T02:54:22;8.83;;;6.73;;
8803;SDS011;4438;50.890;4.726;2023-07-24T02:56:49;8.60;;;6.40;;
8803;SDS011;4438;50.890;4.726;2023-07-24T02:59:15;8.47;;;6.83;;
8803;SDS011;4438;50.890;4.726;2023-07-24T03:01:41;8.27;;;6.40;;
8803;SDS011;4438;50.890;4.726;2023-07-24T03:04:07;7.50;;;6.63;;
8803;SDS011;4438;50.890;4.726;2023-07-24T03:06:33;8.20;;;5.97;;
8803;SDS011;4438;50.890;4.726;2023-07-24T03:08:59;6.63;;;5.60;;
8803;SDS011;4438;50.890;4.726;2023-07-24T03:11:25;7.23;;;6.10;;
8803;SDS011;4438;50.890;4.726;2023-07-24T03:13:52;7.17;;;5.87;;
8803;SDS011;4438;50.890;4.726;2023-07-24T03:16:18;7.43;;;5.20;;
8803;SDS011;4438;50.890;4.726;2023-07-24T03:18:46;7.53;;;5.73;;
8803;SDS011;4438;50.890;4.726;2023-07-24T03:21:12;5.53;;;5.03;;
8803;SDS011;4438;50.890;4.726;2023-07-24T03:23:38;6.80;;;5.13;;
8803;SDS011;4438;50.890;4.726;2023-07-24T03:26:04;6.80;;;5.20;;
8803;SDS011;4438;50.890;4.726;2023-07-24T03:28:30;5.70;;;4.73;;
8803;SDS011;4438;50.890;4.726;2023-07-24T03:30:56;6.63;;;4.73;;
8803;SDS011;4438;50.890;4.726;2023-07-24T03:33:22;6.53;;;4.57;;
8803;SDS011;4438;50.890;4.726;2023-07-24T03:35:48;5.93;;;4.17;;
8803;SDS011;4438;50.890;4.726;2023-07-24T03:38:14;5.97;;;4.40;;
8803;SDS011;4438;50.890;4.726;2023-07-24T03:40:40;5.90;;;4.80;;
8803;SDS011;4438;50.890;4.726;2023-07-24T03:43:06;4.67;;;4.07;;
8803;SDS011;4438;50.890;4.726;2023-07-24T03:45:32;3.60;;;3.30;;
8803;SDS011;4438;50.890;4.726;2023-07-24T03:47:58;4.37;;;3.30;;
8803;SDS011;4438;50.890;4.726;2023-07-24T03:50:24;3.40;;;2.90;;
8803;SDS011;4438;50.890;4.726;2023-07-24T03:52:50;3.50;;;3.20;;
8803;SDS011;4438;50.890;4.726;2023-07-24T03:55:16;3.53;;;2.60;;
8803;SDS011;4438;50.890;4.726;2023-07-24T03:57:42;2.70;;;2.50;;
8803;SDS011;4438;50.890;4.726;2023-07-24T04:00:08;2.50;;;2.30;;
8803;SDS011;4438;50.890;4.726;2023-07-24T04:02:35;2.60;;;2.40;;
8803;SDS011;4438;50.890;4.726;2023-07-24T04:05:01;2.40;;;2.20;;
8803;SDS011;4438;50.890;4.726;2023-07-24T04:07:27;2.60;;;2.27;;
8803;SDS011;4438;50.890;4.726;2023-07-24T04:09:53;2.70;;;2.30;;
8803;SDS011;4438;50.890;4.726;2023-07-24T04:12:19;2.30;;;2.10;;
8803;SDS011;4438;50.890;4.726;2023-07-24T04:14:45;2.47;;;2.27;;
8803;SDS011;4438;50.890;4.726;2023-07-24T04:17:11;2.37;;;2.17;;
8803;SDS011;4438;50.890;4.726;2023-07-24T04:19:37;2.30;;;2.10;;
8803;SDS011;4438;50.890;4.726;2023-07-24T04:22:03;2.77;;;1.97;;
8803;SDS011;4438;50.890;4.726;2023-07-24T04:24:29;2.23;;;2.03;;
8803;SDS011;4438;50.890;4.726;2023-07-24T04:26:55;2.37;;;2.17;;
8803;SDS011;4438;50.890;4.726;2023-07-24T04:29:21;3.77;;;2.37;;
8803;SDS011;4438;50.890;4.726;2023-07-24T04:31:49;2.33;;;2.07;;
8803;SDS011;4438;50.890;4.726;2023-07-24T04:34:15;2.70;;;2.30;;
8803;SDS011;4438;50.890;4.726;2023-07-24T04:36:41;2.60;;;2.40;;
8803;SDS011;4438;50.890;4.726;2023-07-24T04:39:07;2.27;;;2.07;;
8803;SDS011;4438;50.890;4.726;2023-07-24T04:41:34;2.77;;;2.57;;
8803;SDS011;4438;50.890;4.726;2023-07-24T04:44:00;2.33;;;2.07;;
8803;SDS011;4438;50.890;4.726;2023-07-24T04:46:26;2.30;;;2.10;;
8803;SDS011;4438;50.890;4.726;2023-07-24T04:48:52;2.50;;;2.07;;
8803;SDS011;4438;50.890;4.726;2023-07-24T04:51:18;2.40;;;2.20;;
8803;SDS011;4438;50.890;4.726;2023-07-24T04:53:44;2.53;;;2.00;;
8803;SDS011;4438;50.890;4.726;2023-07-24T04:56:10;2.20;;;2.00;;
8803;SDS011;4438;50.890;4.726;2023-07-24T04:58:36;2.23;;;1.97;;
8803;SDS011;4438;50.890;4.726;2023-07-24T05:01:03;2.30;;;2.13;;
8803;SDS011;4438;50.890;4.726;2023-07-24T05:03:29;2.03;;;1.77;;
8803;SDS011;4438;50.890;4.726;2023-07-24T05:05:55;2.13;;;1.97;;
8803;SDS011;4438;50.890;4.726;2023-07-24T05:08:22;2.40;;;1.93;;
8803;SDS011;4438;50.890;4.726;2023-07-24T05:10:53;2.30;;;2.10;;
8803;SDS011;4438;50.890;4.726;2023-07-24T05:13:19;1.80;;;1.70;;
8803;SDS011;4438;50.890;4.726;2023-07-24T05:15:45;2.30;;;2.03;;
8803;SDS011;4438;50.890;4.726;2023-07-24T05:18:11;2.43;;;2.23;;
8803;SDS011;4438;50.890;4.726;2023-07-24T05:20:37;2.27;;;2.07;;
8803;SDS011;4438;50.890;4.726;2023-07-24T05:23:03;2.13;;;1.80;;
8803;SDS011;4438;50.890;4.726;2023-07-24T05:25:29;2.30;;;2.10;;
8803;SDS011;4438;50.890;4.726;2023-07-24T05:27:55;2.00;;;1.90;;
8803;SDS011;4438;50.890;4.726;2023-07-24T05:30:21;2.20;;;2.00;;
8803;SDS011;4438;50.890;4.726;2023-07-24T05:32:48;2.23;;;2.03;;
8803;SDS011;4438;50.890;4.726;2023-07-24T05:35:14;2.20;;;1.97;;
8803;SDS011;4438;50.890;4.726;2023-07-24T05:37:40;3.10;;;2.30;;
8803;SDS011;4438;50.890;4.726;2023-07-24T05:40:06;3.33;;;2.30;;
8803;SDS011;4438;50.890;4.726;2023-07-24T05:42:33;2.70;;;2.50;;
8803;SDS011;4438;50.890;4.726;2023-07-24T05:45:04;2.70;;;2.50;;
8803;SDS011;4438;50.890;4.726;2023-07-24T05:47:30;2.60;;;2.40;;
8803;SDS011;4438;50.890;4.726;2023-07-24T05:49:56;4.53;;;2.63;;
8803;SDS011;4438;50.890;4.726;2023-07-24T05:52:22;3.57;;;3.00;;
8803;SDS011;4438;50.890;4.726;2023-07-24T05:54:48;2.77;;;2.57;;
8803;SDS011;4438;50.890;4.726;2023-07-24T05:57:14;2.83;;;2.63;;
8803;SDS011;4438;50.890;4.726;2023-07-24T05:59:40;3.17;;;2.90;;
8803;SDS011;4438;50.890;4.726;2023-07-24T06:02:06;2.93;;;2.63;;
8803;SDS011;4438;50.890;4.726;2023-07-24T06:04:34;2.93;;;2.70;;
8803;SDS011;4438;50.890;4.726;2023-07-24T06:07:00;3.17;;;2.77;;
8803;SDS011;4438;50.890;4.726;2023-07-24T06:09:26;2.80;;;2.60;;
8803;SDS011;4438;50.890;4.726;2023-07-24T06:11:52;3.27;;;2.97;;
8803;SDS011;4438;50.890;4.726;2023-07-24T06:14:18;2.77;;;2.43;;
8803;SDS011;4438;50.890;4.726;2023-07-24T06:16:44;2.87;;;2.67;;
8803;SDS011;4438;50.890;4.726;2023-07-24T06:19:10;3.20;;;2.90;;
8803;SDS011;4438;50.890;4.726;2023-07-24T06:21:36;3.20;;;2.90;;
8803;SDS011;4438;50.890;4.726;2023-07-24T06:24:03;2.90;;;2.70;;
8803;SDS011;4438;50.890;4.726;2023-07-24T06:26:29;4.17;;;3.10;;
8803;SDS011;4438;50.890;4.726;2023-07-24T06:28:55;2.90;;;2.70;;
8803;SDS011;4438;50.890;4.726;2023-07-24T06:31:21;3.63;;;3.30;;
8803;SDS011;4438;50.890;4.726;2023-07-24T06:33:47;3.00;;;2.80;;
8803;SDS011;4438;50.890;4.726;2023-07-24T06:36:13;3.43;;;3.13;;
8803;SDS011;4438;50.890;4.726;2023-07-24T06:38:39;2.90;;;2.70;;
8803;SDS011;4438;50.890;4.726;2023-07-24T06:41:07;4.77;;;3.10;;
8803;SDS011;4438;50.890;4.726;2023-07-24T06:43:33;5.60;;;2.73;;
8803;SDS011;4438;50.890;4.726;2023-07-24T06:45:59;3.27;;;2.97;;
8803;SDS011;4438;50.890;4.726;2023-07-24T06:48:25;3.10;;;2.80;;
8803;SDS011;4438;50.890;4.726;2023-07-24T06:50:51;3.40;;;3.10;;
8803;SDS011;4438;50.890;4.726;2023-07-24T06:53:17;3.10;;;2.80;;
8803;SDS011;4438;50.890;4.726;2023-07-24T06:55:43;3.30;;;3.00;;
8803;SDS011;4438;50.890;4.726;2023-07-24T06:58:09;3.50;;;3.20;;
8803;SDS011;4438;50.890;4.726;2023-07-24T07:00:36;3.00;;;2.80;;
8803;SDS011;4438;50.890;4.726;2023-07-24T07:03:02;3.13;;;2.83;;
8803;SDS011;4438;50.890;4.726;2023-07-24T07:05:28;2.93;;;2.73;;
8803;SDS011;4438;50.890;4.726;2023-07-24T07:07:54;2.97;;;2.73;;
8803;SDS011;4438;50.890;4.726;2023-07-24T07:10:20;3.87;;;3.47;;
8803;SDS011;4438;50.890;4.726;2023-07-24T07:12:46;3.40;;;3.10;;
8803;SDS011;4438;50.890;4.726;2023-07-24T07:15:12;3.20;;;2.90;;
8803;SDS011;4438;50.890;4.726;2023-07-24T07:17:38;3.90;;;2.87;;
8803;SDS011;4438;50.890;4.726;2023-07-24T07:20:05;3.60;;;2.90;;
8803;SDS011;4438;50.890;4.726;2023-07-24T07:22:31;3.50;;;3.17;;
8803;SDS011;4438;50.890;4.726;2023-07-24T07:24:57;2.90;;;2.70;;
8803;SDS011;4438;50.890;4.726;2023-07-24T07:27:23;3.30;;;3.03;;
8803;SDS011;4438;50.890;4.726;2023-07-24T07:29:49;3.10;;;2.80;;
8803;SDS011;4438;50.890;4.726;2023-07-24T07:32:15;3.20;;;2.90;;
8803;SDS011;4438;50.890;4.726;2023-07-24T07:34:41;3.33;;;3.03;;
8803;SDS011;4438;50.890;4.726;2023-07-24T07:37:07;2.97;;;2.77;;
8803;SDS011;4438;50.890;4.726;2023-07-24T07:39:33;2.83;;;2.63;;
8803;SDS011;4438;50.890;4.726;2023-07-24T07:41:59;3.17;;;2.83;;
8803;SDS011;4438;50.890;4.726;2023-07-24T07:44:25;4.93;;;2.83;;
8803;SDS011;4438;50.890;4.726;2023-07-24T07:46:51;3.30;;;3.00;;
8803;SDS011;4438;50.890;4.726;2023-07-24T07:49:17;3.00;;;2.70;;
8803;SDS011;4438;50.890;4.726;2023-07-24T07:51:44;3.70;;;3.10;;
8803;SDS011;4438;50.890;4.726;2023-07-24T07:54:10;3.33;;;3.03;;
8803;SDS011;4438;50.890;4.726;2023-07-24T07:56:36;2.87;;;2.57;;
8803;SDS011;4438;50.890;4.726;2023-07-24T07:59:02;3.47;;;2.93;;
8803;SDS011;4438;50.890;4.726;2023-07-24T08:01:28;3.20;;;2.90;;
8803;SDS011;4438;50.890;4.726;2023-07-24T08:03:55;3.20;;;2.90;;
8803;SDS011;4438;50.890;4.726;2023-07-24T08:06:21;3.40;;;2.53;;
8803;SDS011;4438;50.890;4.726;2023-07-24T08:08:47;2.83;;;2.60;;
8803;SDS011;4438;50.890;4.726;2023-07-24T08:11:13;3.03;;;2.83;;
8803;SDS011;4438;50.890;4.726;2023-07-24T08:13:39;2.90;;;2.60;;
8803;SDS011;4438;50.890;4.726;2023-07-24T08:16:12;2.97;;;2.67;;
8803;SDS011;4438;50.890;4.726;2023-07-24T08:18:42;3.30;;;2.70;;
8803;SDS011;4438;50.890;4.726;2023-07-24T08:21:08;2.90;;;2.60;;
8803;SDS011;4438;50.890;4.726;2023-07-24T08:23:34;4.30;;;2.70;;
8803;SDS011;4438;50.890;4.726;2023-07-24T08:26:01;2.70;;;2.50;;
8803;SDS011;4438;50.890;4.726;2023-07-24T08:28:27;2.73;;;2.53;;
8803;SDS011;4438;50.890;4.726;2023-07-24T08:30:57;3.03;;;2.80;;
8803;SDS011;4438;50.890;4.726;2023-07-24T08:33:23;3.73;;;2.40;;
8803;SDS011;4438;50.890;4.726;2023-07-24T08:36:02;2.77;;;2.53;;
8803;SDS011;4438;50.890;4.726;2023-07-24T08:38:29;3.87;;;2.70;;
8803;SDS011;4438;50.890;4.726;2023-07-24T08:41:02;4.07;;;3.03;;
8803;SDS011;4438;50.890;4.726;2023-07-24T08:43:28;3.07;;;2.77;;
8803;SDS011;4438;50.890;4.726;2023-07-24T08:45:56;3.03;;;2.70;;
8803;SDS011;4438;50.890;4.726;2023-07-24T08:48:23;3.00;;;2.70;;
8803;SDS011;4438;50.890;4.726;2023-07-24T08:50:50;3.37;;;2.80;;
8803;SDS011;4438;50.890;4.726;2023-07-24T08:53:16;3.03;;;2.50;;
8803;SDS011;4438;50.890;4.726;2023-07-24T08:55:43;3.40;;;2.50;;
8803;SDS011;4438;50.890;4.726;2023-07-24T08:58:10;2.80;;;2.60;;
8803;SDS011;4438;50.890;4.726;2023-07-24T09:00:36;2.73;;;2.50;;
8803;SDS011;4438;50.890;4.726;2023-07-24T09:03:02;2.80;;;2.60;;
8803;SDS011;4438;50.890;4.726;2023-07-24T09:05:28;3.43;;;2.47;;
8803;SDS011;4438;50.890;4.726;2023-07-24T09:07:54;4.03;;;2.83;;
8803;SDS011;4438;50.890;4.726;2023-07-24T09:10:24;3.00;;;2.80;;
8803;SDS011;4438;50.890;4.726;2023-07-24T09:12:51;3.30;;;2.53;;
8803;SDS011;4438;50.890;4.726;2023-07-24T09:15:17;3.23;;;2.93;;
8803;SDS011;4438;50.890;4.726;2023-07-24T09:17:52;3.90;;;3.00;;
8803;SDS011;4438;50.890;4.726;2023-07-24T09:20:19;3.73;;;3.43;;
8803;SDS011;4438;50.890;4.726;2023-07-24T09:22:51;3.93;;;3.53;;
8803;SDS011;4438;50.890;4.726;2023-07-24T09:25:18;4.13;;;3.50;;
8803;SDS011;4438;50.890;4.726;2023-07-24T09:27:44;3.97;;;3.57;;
8803;SDS011;4438;50.890;4.726;2023-07-24T09:30:13;3.50;;;3.20;;
8803;SDS011;4438;50.890;4.726;2023-07-24T09:32:40;5.40;;;3.80;;
8803;SDS011;4438;50.890;4.726;2023-07-24T09:35:16;4.13;;;3.73;;
8803;SDS011;4438;50.890;4.726;2023-07-24T09:37:43;4.23;;;3.83;;
8803;SDS011;4438;50.890;4.726;2023-07-24T09:40:09;4.47;;;4.07;;
8803;SDS011;4438;50.890;4.726;2023-07-24T09:42:36;4.47;;;4.07;;
8803;SDS011;4438;50.890;4.726;2023-07-24T09:45:03;5.00;;;4.00;;
8803;SDS011;4438;50.890;4.726;2023-07-24T09:47:29;4.80;;;4.07;;
8803;SDS011;4438;50.890;4.726;2023-07-24T09:49:55;4.40;;;4.00;;
8803;SDS011;4438;50.890;4.726;2023-07-24T09:52:21;6.23;;;4.33;;
8803;SDS011;4438;50.890;4.726;2023-07-24T09:57:22;5.03;;;4.23;;
8803;SDS011;4438;50.890;4.726;2023-07-24T09:59:49;4.23;;;3.83;;
8803;SDS011;4438;50.890;4.726;2023-07-24T10:02:15;4.70;;;4.07;;
8803;SDS011;4438;50.890;4.726;2023-07-24T10:04:42;5.33;;;4.03;;
8803;SDS011;4438;50.890;4.726;2023-07-24T10:07:10;5.17;;;4.20;;
8803;SDS011;4438;50.890;4.726;2023-07-24T10:09:36;4.23;;;3.83;;
8803;SDS011;4438;50.890;4.726;2023-07-24T10:12:02;4.37;;;3.97;;
8803;SDS011;4438;50.890;4.726;2023-07-24T10:14:29;4.30;;;3.50;;
8803;SDS011;4438;50.890;4.726;2023-07-24T10:16:56;3.60;;;3.30;;
8803;SDS011;4438;50.890;4.726;2023-07-24T10:19:22;3.47;;;3.00;;
8803;SDS011;4438;50.890;4.726;2023-07-24T10:21:48;4.17;;;3.27;;
8803;SDS011;4438;50.890;4.726;2023-07-24T10:24:15;3.90;;;3.20;;
8803;SDS011;4438;50.890;4.726;2023-07-24T10:26:41;3.57;;;2.90;;
8803;SDS011;4438;50.890;4.726;2023-07-24T10:29:08;3.50;;;3.20;;
8803;SDS011;4438;50.890;4.726;2023-07-24T10:31:35;3.60;;;3.30;;
8803;SDS011;4438;50.890;4.726;2023-07-24T10:34:07;4.20;;;3.47;;
8803;SDS011;4438;50.890;4.726;2023-07-24T10:36:33;6.67;;;5.63;;
8803;SDS011;4438;50.890;4.726;2023-07-24T10:39:00;4.13;;;3.53;;
8803;SDS011;4438;50.890;4.726;2023-07-24T10:41:36;4.07;;;3.67;;
8803;SDS011;4438;50.890;4.726;2023-07-24T10:44:02;4.07;;;3.67;;
8803;SDS011;4438;50.890;4.726;2023-07-24T10:49:03;3.13;;;2.93;;
8803;SDS011;4438;50.890;4.726;2023-07-24T10:51:29;3.77;;;3.00;;
8803;SDS011;4438;50.890;4.726;2023-07-24T10:54:00;3.60;;;3.20;;
8803;SDS011;4438;50.890;4.726;2023-07-24T10:56:26;3.63;;;3.23;;
8803;SDS011;4438;50.890;4.726;2023-07-24T10:58:52;3.43;;;3.13;;
8803;SDS011;4438;50.890;4.726;2023-07-24T11:01:18;3.67;;;3.00;;
8803;SDS011;4438;50.890;4.726;2023-07-24T11:03:44;3.27;;;2.93;;
8803;SDS011;4438;50.890;4.726;2023-07-24T11:06:17;3.07;;;2.87;;
8803;SDS011;4438;50.890;4.726;2023-07-24T11:08:50;3.53;;;3.13;;
8803;SDS011;4438;50.890;4.726;2023-07-24T11:11:17;3.07;;;2.77;;
8803;SDS011;4438;50.890;4.726;2023-07-24T11:13:43;3.43;;;3.07;;
8803;SDS011;4438;50.890;4.726;2023-07-24T11:16:09;3.20;;;2.83;;
8803;SDS011;4438;50.890;4.726;2023-07-24T11:18:48;5.17;;;2.90;;
8803;SDS011;4438;50.890;4.726;2023-07-24T11:21:16;3.20;;;2.90;;
8803;SDS011;4438;50.890;4.726;2023-07-24T11:23:49;3.13;;;2.70;;
8803;SDS011;4438;50.890;4.726;2023-07-24T11:26:15;3.10;;;2.80;;
8803;SDS011;4438;50.890;4.726;2023-07-24T11:28:44;3.07;;;2.80;;
8803;SDS011;4438;50.890;4.726;2023-07-24T11:31:10;2.93;;;2.67;;
8803;SDS011;4438;50.890;4.726;2023-07-24T11:33:36;3.80;;;2.60;;
8803;SDS011;4438;50.890;4.726;2023-07-24T11:36:03;3.63;;;2.73;;
8803;SDS011;4438;50.890;4.726;2023-07-24T11:38:29;3.13;;;2.83;;
8803;SDS011;4438;50.890;4.726;2023-07-24T11:40:55;3.20;;;2.80;;
8803;SDS011;4438;50.890;4.726;2023-07-24T11:43:22;3.23;;;2.93;;
8803;SDS011;4438;50.890;4.726;2023-07-24T11:45:49;3.10;;;2.90;;
8803;SDS011;4438;50.890;4.726;2023-07-24T11:48:19;3.30;;;3.00;;
8803;SDS011;4438;50.890;4.726;2023-07-24T11:50:47;3.23;;;2.93;;
8803;SDS011;4438;50.890;4.726;2023-07-24T11:53:46;3.70;;;3.40;;
8803;SDS011;4438;50.890;4.726;2023-07-24T11:56:13;3.27;;;2.97;;
8803;SDS011;4438;50.890;4.726;2023-07-24T11:58:39;3.37;;;3.07;;
8803;SDS011;4438;50.890;4.726;2023-07-24T12:01:05;3.47;;;3.17;;
8803;SDS011;4438;50.890;4.726;2023-07-24T12:03:31;4.30;;;3.57;;
8803;SDS011;4438;50.890;4.726;2023-07-24T12:05:57;3.60;;;3.30;;
8803;SDS011;4438;50.890;4.726;2023-07-24T12:08:30;3.83;;;3.43;;
8803;SDS011;4438;50.890;4.726;2023-07-24T12:10:57;4.10;;;3.80;;
8803;SDS011;4438;50.890;4.726;2023-07-24T12:13:23;3.43;;;3.13;;
8803;SDS011;4438;50.890;4.726;2023-07-24T12:15:49;3.47;;;3.17;;
8803;SDS011;4438;50.890;4.726;2023-07-24T12:18:16;3.87;;;3.47;;
8803;SDS011;4438;50.890;4.726;2023-07-24T12:20:42;4.03;;;3.63;;
8803;SDS011;4438;50.890;4.726;2023-07-24T12:23:08;5.90;;;3.70;;
8803;SDS011;4438;50.890;4.726;2023-07-24T12:25:34;4.23;;;3.83;;
8803;SDS011;4438;50.890;4.726;2023-07-24T12:28:00;3.60;;;3.30;;
8803;SDS011;4438;50.890;4.726;2023-07-24T12:30:26;3.93;;;3.40;;
8803;SDS011;4438;50.890;4.726;2023-07-24T12:32:52;3.60;;;3.30;;
8803;SDS011;4438;50.890;4.726;2023-07-24T12:35:18;3.80;;;3.40;;
8803;SDS011;4438;50.890;4.726;2023-07-24T12:37:44;3.90;;;3.60;;
8803;SDS011;4438;50.890;4.726;2023-07-24T12:40:11;3.90;;;3.50;;
8803;SDS011;4438;50.890;4.726;2023-07-24T12:42:37;3.67;;;3.37;;
8803;SDS011;4438;50.890;4.726;2023-07-24T12:45:04;4.10;;;3.70;;
8803;SDS011;4438;50.890;4.726;2023-07-24T12:47:30;4.17;;;3.77;;
8803;SDS011;4438;50.890;4.726;2023-07-24T12:49:56;4.27;;;3.40;;
8803;SDS011;4438;50.890;4.726;2023-07-24T12:52:24;4.13;;;3.73;;
8803;SDS011;4438;50.890;4.726;2023-07-24T12:54:50;4.17;;;3.77;;
8803;SDS011;4438;50.890;4.726;2023-07-24T12:57:16;4.00;;;3.60;;
8803;SDS011;4438;50.890;4.726;2023-07-24T12:59:42;4.63;;;4.23;;
8803;SDS011;4438;50.890;4.726;2023-07-24T13:02:08;4.43;;;4.07;;
8803;SDS011;4438;50.890;4.726;2023-07-24T13:04:34;5.10;;;4.20;;
8803;SDS011;4438;50.890;4.726;2023-07-24T13:07:00;4.47;;;4.07;;
8803;SDS011;4438;50.890;4.726;2023-07-24T13:09:27;4.07;;;3.67;;
8803;SDS011;4438;50.890;4.726;2023-07-24T13:11:54;4.73;;;3.90;;
8803;SDS011;4438;50.890;4.726;2023-07-24T13:14:20;4.27;;;3.87;;
8803;SDS011;4438;50.890;4.726;2023-07-24T13:16:48;4.90;;;4.00;;
8803;SDS011;4438;50.890;4.726;2023-07-24T13:19:14;4.40;;;4.00;;
8803;SDS011;4438;50.890;4.726;2023-07-24T13:21:40;4.77;;;4.37;;
8803;SDS011;4438;50.890;4.726;2023-07-24T13:24:08;4.40;;;4.00;;
8803;SDS011;4438;50.890;4.726;2023-07-24T13:26:34;4.50;;;4.10;;
8803;SDS011;4438;50.890;4.726;2023-07-24T13:29:00;4.30;;;3.90;;
8803;SDS011;4438;50.890;4.726;2023-07-24T13:31:26;4.33;;;3.67;;
8803;SDS011;4438;50.890;4.726;2023-07-24T13:33:53;4.43;;;4.03;;
8803;SDS011;4438;50.890;4.726;2023-07-24T13:36:20;5.43;;;3.73;;
8803;SDS011;4438;50.890;4.726;2023-07-24T13:38:46;4.30;;;3.90;;
8803;SDS011;4438;50.890;4.726;2023-07-24T13:41:13;4.70;;;3.57;;
8803;SDS011;4438;50.890;4.726;2023-07-24T13:43:39;3.87;;;3.50;;
8803;SDS011;4438;50.890;4.726;2023-07-24T13:46:05;3.57;;;3.23;;
8803;SDS011;4438;50.890;4.726;2023-07-24T13:48:33;5.97;;;3.57;;
8803;SDS011;4438;50.890;4.726;2023-07-24T13:50:59;3.27;;;2.97;;
8803;SDS011;4438;50.890;4.726;2023-07-24T13:53:25;4.33;;;3.30;;
8803;SDS011;4438;50.890;4.726;2023-07-24T13:55:51;3.53;;;3.23;;
8803;SDS011;4438;50.890;4.726;2023-07-24T13:58:17;4.33;;;3.47;;
8803;SDS011;4438;50.890;4.726;2023-07-24T14:00:43;5.83;;;3.70;;
8803;SDS011;4438;50.890;4.726;2023-07-24T14:03:09;4.77;;;3.53;;
8803;SDS011;4438;50.890;4.726;2023-07-24T14:05:36;4.23;;;3.20;;
8803;SDS011;4438;50.890;4.726;2023-07-24T14:08:02;3.67;;;3.30;;
8803;SDS011;4438;50.890;4.726;2023-07-24T14:10:28;4.53;;;3.67;;
8803;SDS011;4438;50.890;4.726;2023-07-24T14:12:54;3.77;;;3.47;;
8803;SDS011;4438;50.890;4.726;2023-07-24T14:15:20;4.23;;;3.30;;
8803;SDS011;4438;50.890;4.726;2023-07-24T14:17:46;4.33;;;3.40;;
8803;SDS011;4438;50.890;4.726;2023-07-24T14:20:13;4.17;;;3.30;;
8803;SDS011;4438;50.890;4.726;2023-07-24T14:22:39;3.70;;;3.40;;
8803;SDS011;4438;50.890;4.726;2023-07-24T14:25:05;3.47;;;3.10;;
8803;SDS011;4438;50.890;4.726;2023-07-24T14:27:31;4.27;;;3.40;;
8803;SDS011;4438;50.890;4.726;2023-07-24T14:29:57;3.47;;;3.13;;
8803;SDS011;4438;50.890;4.726;2023-07-24T14:32:23;3.33;;;3.03;;
8803;SDS011;4438;50.890;4.726;2023-07-24T14:34:50;3.27;;;2.97;;
8803;SDS011;4438;50.890;4.726;2023-07-24T14:37:17;3.30;;;3.00;;
8803;SDS011;4438;50.890;4.726;2023-07-24T14:39:43;3.13;;;2.83;;
8803;SDS011;4438;50.890;4.726;2023-07-24T14:42:09;3.87;;;3.07;;
8803;SDS011;4438;50.890;4.726;2023-07-24T14:44:36;3.30;;;3.00;;
8803;SDS011;4438;50.890;4.726;2023-07-24T14:47:02;3.53;;;3.00;;
8803;SDS011;4438;50.890;4.726;2023-07-24T14:49:28;3.43;;;3.03;;
8803;SDS011;4438;50.890;4.726;2023-07-24T14:51:54;3.07;;;2.87;;
8803;SDS011;4438;50.890;4.726;2023-07-24T14:54:20;3.47;;;3.17;;
8803;SDS011;4438;50.890;4.726;2023-07-24T14:56:46;4.77;;;3.33;;
8803;SDS011;4438;50.890;4.726;2023-07-24T14:59:12;3.40;;;3.10;;
8803;SDS011;4438;50.890;4.726;2023-07-24T15:01:38;3.63;;;3.33;;
8803;SDS011;4438;50.890;4.726;2023-07-24T15:04:04;3.93;;;3.60;;
8803;SDS011;4438;50.890;4.726;2023-07-24T15:06:30;3.87;;;3.50;;
8803;SDS011;4438;50.890;4.726;2023-07-24T15:08:57;3.40;;;3.10;;
8803;SDS011;4438;50.890;4.726;2023-07-24T15:11:23;3.33;;;2.97;;
8803;SDS011;4438;50.890;4.726;2023-07-24T15:13:49;3.87;;;3.47;;
8803;SDS011;4438;50.890;4.726;2023-07-24T15:16:15;3.70;;;3.07;;